createdAt,value
2019-04-26T00:04:28.817Z,44.61
2019-04-26T00:09:33.845Z,44.71
2019-04-26T00:14:38.926Z,44.82
2019-04-26T00:19:42.358Z,44.81
2019-04-26T00:24:45.959Z,45.12
2019-04-26T00:29:49.389Z,46.46
2019-04-26T00:34:52.809Z,46.49
2019-04-26T00:39:56.239Z,46.03
2019-04-26T00:44:59.747Z,45.57
2019-04-26T00:50:03.976Z,45.89
2019-04-26T00:55:08.497Z,46.40
2019-04-26T01:00:15.182Z,47.13
2019-04-26T01:05:19.377Z,47.41
2019-04-26T01:10:23.755Z,47.32
2019-04-26T01:15:27.284Z,47.26
2019-04-26T01:20:32.777Z,47.50
2019-04-26T01:25:42.097Z,48.02
2019-04-26T01:30:45.728Z,48.42
2019-04-26T01:35:58.960Z,48.89
2019-04-26T01:41:05.121Z,49.17
2019-04-26T01:46:29.565Z,48.83
2019-04-26T01:51:44.645Z,48.66
2019-04-26T01:56:51.164Z,48.81
2019-04-26T02:02:02.229Z,48.38
2019-04-26T02:07:05.863Z,48.95
2019-04-26T02:12:09.294Z,49.91
2019-04-26T02:17:12.719Z,50.39
2019-04-26T02:22:34.166Z,50.62
2019-04-26T02:27:37.719Z,50.01
2019-04-26T02:32:41.218Z,50.00
2019-04-26T02:37:44.980Z,50.92
2019-04-26T02:42:49.660Z,50.98
2019-04-26T02:47:57.569Z,51.53
2019-04-26T02:53:15.924Z,51.67
2019-04-26T02:58:21.857Z,52.07
2019-04-26T03:03:26.830Z,52.62
2019-04-26T03:08:33.919Z,51.01
2019-04-26T03:13:43.686Z,51.55
2019-04-26T03:19:00.525Z,52.18
2019-04-26T03:24:07.002Z,52.47
2019-04-26T03:29:19.173Z,52.28
2019-04-26T03:34:39.300Z,53.65
2019-04-26T03:40:23.157Z,54.58
2019-04-26T03:45:38.968Z,54.74
2019-04-26T03:50:51.908Z,56.19
2019-04-26T03:56:09.529Z,56.90
2019-04-26T04:01:15.139Z,57.09
2019-04-26T04:06:23.448Z,57.22
2019-04-26T04:11:32.956Z,57.25
2019-04-26T04:16:55.905Z,58.21
2019-04-26T04:22:11.047Z,61.66
2019-04-26T04:27:23.185Z,62.16
2019-04-26T04:33:02.432Z,62.60
2019-04-26T04:38:27.962Z,62.53
2019-04-26T04:43:36.028Z,62.73
2019-04-26T04:49:21.385Z,63.95
2019-04-26T04:54:33.713Z,64.25
2019-04-26T04:59:49.000Z,64.58
2019-04-26T05:05:26.640Z,64.22
2019-04-26T05:10:38.863Z,64.36
2019-04-26T05:15:52.838Z,64.35
2019-04-26T05:21:08.054Z,64.52
2019-04-26T05:26:43.024Z,63.88
2019-04-26T05:31:56.257Z,64.23
2019-04-26T05:37:08.217Z,64.05
2019-04-26T05:42:24.931Z,63.74
2019-04-26T05:48:01.490Z,63.16
2019-04-26T05:53:09.614Z,62.80
2019-04-26T05:58:24.854Z,62.78
2019-04-26T06:03:54.380Z,62.32
2019-04-26T06:09:27.016Z,62.27
2019-04-26T06:14:57.369Z,61.93
2019-04-26T06:20:23.606Z,61.78
2019-04-26T06:25:40.451Z,61.59
2019-04-26T06:30:49.787Z,61.60
2019-04-26T06:35:57.266Z,61.14
2019-04-26T06:41:28.006Z,61.86
2019-04-26T06:46:53.402Z,60.98
2019-04-26T06:52:02.634Z,60.89
2019-04-26T06:57:28.385Z,60.46
2019-04-26T07:02:34.822Z,60.64
2019-04-26T07:07:59.992Z,59.02
2019-04-26T07:13:39.436Z,59.03
2019-04-26T07:18:50.984Z,58.97
2019-04-26T07:24:32.048Z,58.59
2019-04-26T07:30:05.072Z,59.05
2019-04-26T07:35:23.242Z,57.75
2019-04-26T07:40:36.977Z,56.69
2019-04-26T07:46:12.680Z,57.01
2019-04-26T07:51:19.073Z,56.58
2019-04-26T07:56:25.517Z,56.98
2019-04-26T08:01:51.420Z,57.02
2019-04-26T08:07:06.849Z,57.24
2019-04-26T08:12:12.820Z,58.58
2019-04-26T08:17:29.287Z,56.40
2019-04-26T08:22:34.765Z,56.40
2019-04-26T08:27:40.796Z,56.30
2019-04-26T08:32:53.080Z,55.66
2019-04-26T08:37:59.516Z,55.78
2019-04-26T08:43:22.969Z,54.71
2019-04-26T08:48:29.382Z,54.00
2019-04-26T08:53:35.790Z,54.96
2019-04-26T08:58:42.228Z,54.51
2019-04-26T09:03:50.318Z,53.91
2019-04-26T09:08:55.546Z,54.60
2019-04-26T09:14:02.213Z,54.22
2019-04-26T09:19:05.684Z,53.54
2019-04-26T09:24:10.731Z,54.34
2019-04-26T09:29:34.165Z,53.34
2019-04-26T09:34:41.327Z,53.26
2019-04-26T09:39:43.432Z,53.87
2019-04-26T09:44:56.812Z,53.84
2019-04-26T09:50:11.174Z,53.76
2019-04-26T09:55:15.657Z,54.09
2019-04-26T10:00:24.322Z,54.86
2019-04-26T10:05:27.779Z,54.41
2019-04-26T10:10:35.405Z,54.83
2019-04-26T10:15:43.679Z,54.55
2019-04-26T10:20:47.069Z,55.23
2019-04-26T10:25:51.824Z,56.13
2019-04-26T10:30:55.812Z,54.77
2019-04-26T10:35:59.210Z,55.73
2019-04-26T10:41:02.673Z,56.17
2019-04-26T10:46:07.037Z,56.23
2019-04-26T10:51:11.068Z,56.69
2019-04-26T10:56:24.271Z,58.18
2019-04-26T11:01:26.990Z,57.02
2019-04-26T11:06:30.607Z,58.23
2019-04-26T11:11:34.745Z,58.68
2019-04-26T11:16:41.154Z,59.23
2019-04-26T11:21:43.241Z,59.70
2019-04-26T11:26:46.633Z,59.03
2019-04-26T11:31:50.027Z,59.34
2019-04-26T11:36:53.431Z,59.35
2019-04-26T11:41:56.807Z,58.61
2019-04-26T11:47:03.259Z,59.21
2019-04-26T11:52:05.680Z,59.11
2019-04-26T11:57:12.015Z,59.31
2019-04-26T12:02:16.117Z,58.99
2019-04-26T12:07:23.595Z,58.87
2019-04-26T12:12:26.987Z,58.92
2019-04-26T12:17:31.155Z,58.93
2019-04-26T12:22:35.489Z,59.05
2019-04-26T12:27:39.200Z,58.84
2019-04-26T12:32:42.588Z,58.69
2019-04-26T12:37:46.225Z,58.85
2019-04-26T12:42:49.637Z,58.57
2019-04-26T12:47:54.660Z,59.79
2019-04-26T12:52:58.048Z,60.53
2019-04-26T12:58:01.440Z,60.40
2019-04-26T13:03:05.998Z,62.32
2019-04-26T13:08:13.101Z,64.99
2019-04-26T13:13:34.227Z,68.41
2019-04-26T13:18:41.247Z,70.04
2019-04-26T13:23:42.725Z,69.88
2019-04-26T13:28:46.125Z,69.87
2019-04-26T13:33:49.507Z,69.56
2019-04-26T13:38:52.893Z,70.15
2019-04-26T13:43:57.200Z,70.37
2019-04-26T13:49:05.681Z,69.55
2019-04-26T13:54:09.076Z,69.93
2019-04-26T13:59:12.709Z,70.97
2019-04-26T14:04:16.153Z,71.41
2019-04-26T14:09:19.724Z,71.84
2019-04-26T14:14:23.111Z,71.66
2019-04-26T14:19:26.509Z,71.61
2019-04-26T14:24:40.584Z,72.13
2019-04-26T14:29:43.978Z,71.29
2019-04-26T14:34:47.364Z,70.84
2019-04-26T14:39:51.384Z,68.39
2019-04-26T14:44:55.863Z,68.37
2019-04-26T14:49:59.411Z,67.39
2019-04-26T14:55:04.563Z,67.03
2019-04-26T15:00:10.202Z,66.74
2019-04-26T15:05:15.410Z,67.98
2019-04-26T15:10:20.437Z,68.16
2019-04-26T15:15:26.723Z,67.05
2019-04-26T15:20:29.128Z,65.64
2019-04-26T15:25:33.582Z,66.47
2019-04-26T15:30:43.187Z,65.62
2019-04-26T15:35:42.948Z,65.77
2019-04-26T15:40:47.998Z,65.50
2019-04-26T15:45:53.277Z,65.58
2019-04-26T15:50:57.448Z,66.55
2019-04-26T15:56:02.465Z,66.63
2019-04-26T16:01:06.825Z,67.58
2019-04-26T16:06:12.646Z,67.58
2019-04-26T16:11:16.061Z,67.98
2019-04-26T16:16:20.583Z,68.44
2019-04-26T16:21:24.549Z,68.24
2019-04-26T16:26:27.964Z,68.11
2019-04-26T16:31:46.089Z,67.93
2019-04-26T16:36:49.737Z,68.11
2019-04-26T16:41:53.124Z,67.56
2019-04-26T16:47:01.479Z,67.84
2019-04-26T16:52:06.577Z,67.61
2019-04-26T16:57:11.476Z,67.21
2019-04-26T17:02:15.599Z,66.67
2019-04-26T17:07:22.021Z,66.49
2019-04-26T17:12:22.598Z,66.33
2019-04-26T17:17:27.191Z,66.12
2019-04-26T17:22:44.726Z,65.91
2019-04-26T17:27:40.290Z,65.79
2019-04-26T17:32:47.605Z,65.50
2019-04-26T17:37:50.300Z,65.16
2019-04-26T17:42:53.701Z,65.27
2019-04-26T17:47:57.082Z,65.24
2019-04-26T17:53:00.666Z,65.25
2019-04-26T17:58:11.849Z,65.27
2019-04-26T18:03:14.517Z,65.43
2019-04-26T18:08:33.659Z,65.21
2019-04-26T18:13:21.688Z,65.42
2019-04-26T18:18:29.129Z,65.46
2019-04-26T18:23:33.915Z,65.08
2019-04-26T18:28:37.397Z,65.27
2019-04-26T18:33:42.551Z,65.56
2019-04-26T18:38:48.661Z,65.29
2019-04-26T18:43:54.086Z,65.14
2019-04-26T18:48:56.191Z,65.05
2019-04-26T18:54:17.923Z,65.01
2019-04-26T18:59:23.303Z,64.63
2019-04-26T19:04:26.523Z,64.46
2019-04-26T19:09:31.395Z,64.40
2019-04-26T19:14:49.842Z,64.56
2019-04-26T19:20:09.091Z,64.55
2019-04-26T19:25:21.229Z,64.56
2019-04-26T19:30:21.450Z,64.53
2019-04-26T19:35:24.690Z,64.70
2019-04-26T19:40:28.150Z,65.01
2019-04-26T19:45:47.151Z,65.33
2019-04-26T19:50:58.197Z,65.75
2019-04-26T19:56:05.909Z,65.85
2019-04-26T20:01:09.306Z,65.70
2019-04-26T20:06:18.639Z,65.70
2019-04-26T20:11:18.733Z,65.66
2019-04-26T20:16:25.802Z,65.67
2019-04-26T20:21:28.012Z,65.40
2019-04-26T20:26:31.552Z,65.32
2019-04-26T20:31:37.652Z,65.26
2019-04-26T20:36:47.662Z,65.10
2019-04-26T20:41:47.201Z,64.87
2019-04-26T20:46:51.965Z,64.85
2019-04-26T20:51:55.398Z,65.06
2019-04-26T20:56:58.787Z,65.31
2019-04-26T21:02:07.528Z,65.46
2019-04-26T21:07:12.232Z,65.77
2019-04-26T21:12:15.816Z,65.88
2019-04-26T21:17:19.486Z,66.18
2019-04-26T21:22:28.455Z,66.35
2019-04-26T21:27:45.539Z,66.76
2019-04-26T21:32:59.678Z,67.00
2019-04-26T21:38:16.543Z,67.07
2019-04-26T21:43:20.000Z,67.03
2019-04-26T21:48:23.590Z,67.19
2019-04-26T21:53:29.702Z,66.96
2019-04-26T21:58:33.731Z,66.73
2019-04-26T22:03:37.459Z,66.57
2019-04-26T22:08:46.256Z,66.40
2019-04-26T22:14:06.068Z,66.62
2019-04-26T22:19:32.595Z,67.03
2019-04-26T22:24:36.251Z,67.14
2019-04-26T22:29:39.639Z,67.33
2019-04-26T22:34:46.188Z,67.07
2019-04-26T22:39:48.148Z,66.86
2019-04-26T22:45:10.406Z,66.60
2019-04-26T22:50:20.857Z,66.73
2019-04-26T22:55:24.045Z,66.84
2019-04-26T23:00:29.435Z,66.56
2019-04-26T23:05:35.645Z,66.50
2019-04-26T23:10:43.661Z,66.18
2019-04-26T23:15:48.693Z,65.98
2019-04-26T23:21:03.566Z,65.91
2019-04-26T23:26:07.703Z,66.06
2019-04-26T23:31:11.397Z,65.97
2019-04-26T23:36:18.429Z,66.27
2019-04-26T23:41:19.892Z,66.37
2019-04-26T23:46:25.984Z,66.24
2019-04-26T23:51:28.655Z,66.20
2019-04-26T23:56:33.476Z,66.37
